sensor_id;sensor_type;location;lat;lon;timestamp;pressure;altitude;pressure_sealevel;temperature;humidity
73106;BME280;61559;50.476;15.588;2024-01-06T00:02:23;96515.73;;;1.97;94.58
73106;BME280;61559;50.476;15.588;2024-01-06T00:04:55;96513.02;;;1.95;94.80
73106;BME280;61559;50.476;15.588;2024-01-06T00:07:25;96512.19;;;1.96;94.96
73106;BME280;61559;50.476;15.588;2024-01-06T00:09:56;96511.43;;;1.95;94.92
73106;BME280;61559;50.476;15.588;2024-01-06T00:12:27;96512.95;;;1.96;95.06
73106;BME280;61559;50.476;15.588;2024-01-06T00:14:59;96512.16;;;1.98;95.02
73106;BME280;61559;50.476;15.588;2024-01-06T00:17:30;96512.02;;;1.98;94.78
73106;BME280;61559;50.476;15.588;2024-01-06T00:20:01;96506.98;;;1.99;94.91
73106;BME280;61559;50.476;15.588;2024-01-06T00:22:34;96505.08;;;2.00;95.13
73106;BME280;61559;50.476;15.588;2024-01-06T00:25:07;96507.46;;;2.00;95.00
73106;BME280;61559;50.476;15.588;2024-01-06T00:27:38;96510.57;;;2.00;95.00
73106;BME280;61559;50.476;15.588;2024-01-06T00:30:10;96515.17;;;2.02;95.11
73106;BME280;61559;50.476;15.588;2024-01-06T00:32:42;96514.13;;;2.04;94.97
73106;BME280;61559;50.476;15.588;2024-01-06T00:35:13;96512.65;;;2.07;94.93
73106;BME280;61559;50.476;15.588;2024-01-06T00:37:43;96510.91;;;2.08;94.76
73106;BME280;61559;50.476;15.588;2024-01-06T00:40:14;96514.77;;;2.08;94.59
73106;BME280;61559;50.476;15.588;2024-01-06T00:42:46;96516.62;;;2.10;94.74
73106;BME280;61559;50.476;15.588;2024-01-06T00:45:17;96510.39;;;2.13;94.67
73106;BME280;61559;50.476;15.588;2024-01-06T00:47:49;96506.65;;;2.15;94.67
73106;BME280;61559;50.476;15.588;2024-01-06T00:50:20;96506.99;;;2.16;94.74
73106;BME280;61559;50.476;15.588;2024-01-06T00:52:50;96508.20;;;2.17;94.74
73106;BME280;61559;50.476;15.588;2024-01-06T00:55:22;96505.60;;;2.14;94.79
73106;BME280;61559;50.476;15.588;2024-01-06T00:57:54;96501.83;;;2.14;94.84
73106;BME280;61559;50.476;15.588;2024-01-06T01:00:25;96502.83;;;2.16;94.94
73106;BME280;61559;50.476;15.588;2024-01-06T01:02:57;96505.38;;;2.19;94.84
73106;BME280;61559;50.476;15.588;2024-01-06T01:05:29;96505.70;;;2.21;94.88
73106;BME280;61559;50.476;15.588;2024-01-06T01:07:59;96505.98;;;2.23;94.82
73106;BME280;61559;50.476;15.588;2024-01-06T01:10:31;96504.80;;;2.23;94.72
73106;BME280;61559;50.476;15.588;2024-01-06T01:13:02;96501.59;;;2.24;94.70
73106;BME280;61559;50.476;15.588;2024-01-06T01:15:33;96504.69;;;2.24;94.71
73106;BME280;61559;50.476;15.588;2024-01-06T01:18:05;96506.89;;;2.23;94.64
73106;BME280;61559;50.476;15.588;2024-01-06T01:20:36;96510.39;;;2.24;94.68
73106;BME280;61559;50.476;15.588;2024-01-06T01:23:07;96514.13;;;2.25;94.51
73106;BME280;61559;50.476;15.588;2024-01-06T01:25:39;96509.73;;;2.24;94.55
73106;BME280;61559;50.476;15.588;2024-01-06T01:28:10;96516.80;;;2.22;94.70
73106;BME280;61559;50.476;15.588;2024-01-06T01:30:41;96516.05;;;2.18;94.55
73106;BME280;61559;50.476;15.588;2024-01-06T01:33:13;96516.08;;;2.16;94.74
73106;BME280;61559;50.476;15.588;2024-01-06T01:35:44;96512.30;;;2.17;94.93
73106;BME280;61559;50.476;15.588;2024-01-06T01:38:14;96511.34;;;2.17;94.92
73106;BME280;61559;50.476;15.588;2024-01-06T01:40:46;96513.28;;;2.17;94.90
73106;BME280;61559;50.476;15.588;2024-01-06T01:43:20;96511.33;;;2.18;94.82
73106;BME280;61559;50.476;15.588;2024-01-06T01:45:54;96507.99;;;2.20;94.75
73106;BME280;61559;50.476;15.588;2024-01-06T01:48:26;96509.75;;;2.22;94.65
73106;BME280;61559;50.476;15.588;2024-01-06T01:50:57;96509.28;;;2.23;94.42
73106;BME280;61559;50.476;15.588;2024-01-06T01:53:31;96508.21;;;2.23;94.39
73106;BME280;61559;50.476;15.588;2024-01-06T01:56:02;96506.23;;;2.23;94.26
73106;BME280;61559;50.476;15.588;2024-01-06T01:58:34;96509.28;;;2.23;94.19
73106;BME280;61559;50.476;15.588;2024-01-06T02:01:05;96509.34;;;2.22;94.00
73106;BME280;61559;50.476;15.588;2024-01-06T02:03:38;96516.84;;;2.23;94.06
73106;BME280;61559;50.476;15.588;2024-01-06T02:06:12;96522.48;;;2.25;94.09
73106;BME280;61559;50.476;15.588;2024-01-06T02:08:44;96522.46;;;2.24;94.06
73106;BME280;61559;50.476;15.588;2024-01-06T02:11:15;96524.09;;;2.25;94.20
73106;BME280;61559;50.476;15.588;2024-01-06T02:13:45;96521.90;;;2.25;94.24
73106;BME280;61559;50.476;15.588;2024-01-06T02:16:16;96515.80;;;2.22;94.13
73106;BME280;61559;50.476;15.588;2024-01-06T02:18:48;96514.73;;;2.22;94.23
73106;BME280;61559;50.476;15.588;2024-01-06T02:21:21;96513.95;;;2.23;94.13
73106;BME280;61559;50.476;15.588;2024-01-06T02:23:54;96511.92;;;2.23;94.41
73106;BME280;61559;50.476;15.588;2024-01-06T02:26:25;96508.46;;;2.24;94.32
73106;BME280;61559;50.476;15.588;2024-01-06T02:28:56;96510.27;;;2.25;94.45
73106;BME280;61559;50.476;15.588;2024-01-06T02:31:27;96511.31;;;2.26;94.57
73106;BME280;61559;50.476;15.588;2024-01-06T02:33:59;96512.31;;;2.27;94.59
73106;BME280;61559;50.476;15.588;2024-01-06T02:36:29;96508.73;;;2.28;94.57
73106;BME280;61559;50.476;15.588;2024-01-06T02:39:00;96509.42;;;2.26;94.37
73106;BME280;61559;50.476;15.588;2024-01-06T02:41:36;96508.94;;;2.25;94.35
73106;BME280;61559;50.476;15.588;2024-01-06T02:44:07;96512.44;;;2.26;94.50
73106;BME280;61559;50.476;15.588;2024-01-06T02:46:42;96511.35;;;2.27;94.64
73106;BME280;61559;50.476;15.588;2024-01-06T02:49:14;96512.17;;;2.27;94.47
73106;BME280;61559;50.476;15.588;2024-01-06T02:51:43;96510.06;;;2.28;94.54
73106;BME280;61559;50.476;15.588;2024-01-06T02:54:14;96514.33;;;2.29;94.46
73106;BME280;61559;50.476;15.588;2024-01-06T02:56:46;96515.05;;;2.31;94.53
73106;BME280;61559;50.476;15.588;2024-01-06T02:59:15;96517.02;;;2.33;94.41
73106;BME280;61559;50.476;15.588;2024-01-06T03:01:46;96514.23;;;2.32;94.32
73106;BME280;61559;50.476;15.588;2024-01-06T03:04:18;96511.48;;;2.33;94.37
73106;BME280;61559;50.476;15.588;2024-01-06T03:06:47;96514.30;;;2.34;94.34
73106;BME280;61559;50.476;15.588;2024-01-06T03:09:23;96519.98;;;2.35;94.28
73106;BME280;61559;50.476;15.588;2024-01-06T03:11:53;96521.27;;;2.37;94.30
73106;BME280;61559;50.476;15.588;2024-01-06T03:14:25;96522.13;;;2.38;94.31
73106;BME280;61559;50.476;15.588;2024-01-06T03:16:54;96517.81;;;2.40;94.39
73106;BME280;61559;50.476;15.588;2024-01-06T03:19:26;96518.08;;;2.40;94.28
73106;BME280;61559;50.476;15.588;2024-01-06T03:21:58;96520.16;;;2.40;94.23
73106;BME280;61559;50.476;15.588;2024-01-06T03:24:27;96515.86;;;2.41;94.11
73106;BME280;61559;50.476;15.588;2024-01-06T03:26:59;96517.06;;;2.40;94.25
73106;BME280;61559;50.476;15.588;2024-01-06T03:29:30;96520.91;;;2.41;94.21
73106;BME280;61559;50.476;15.588;2024-01-06T03:31:59;96513.80;;;2.41;94.34
73106;BME280;61559;50.476;15.588;2024-01-06T03:34:31;96513.49;;;2.41;94.43
73106;BME280;61559;50.476;15.588;2024-01-06T03:37:03;96515.12;;;2.41;94.26
73106;BME280;61559;50.476;15.588;2024-01-06T03:39:34;96514.69;;;2.42;94.12
73106;BME280;61559;50.476;15.588;2024-01-06T03:42:06;96519.14;;;2.44;94.38
73106;BME280;61559;50.476;15.588;2024-01-06T03:44:38;96517.26;;;2.47;94.37
73106;BME280;61559;50.476;15.588;2024-01-06T03:47:09;96518.70;;;2.49;94.26
73106;BME280;61559;50.476;15.588;2024-01-06T03:49:38;96519.27;;;2.51;94.34
73106;BME280;61559;50.476;15.588;2024-01-06T03:52:10;96514.55;;;2.51;94.29
73106;BME280;61559;50.476;15.588;2024-01-06T03:54:41;96514.66;;;2.54;94.25
73106;BME280;61559;50.476;15.588;2024-01-06T03:57:12;96515.70;;;2.55;94.21
73106;BME280;61559;50.476;15.588;2024-01-06T03:59:44;96512.13;;;2.57;94.09
73106;BME280;61559;50.476;15.588;2024-01-06T04:02:16;96513.99;;;2.60;94.18
73106;BME280;61559;50.476;15.588;2024-01-06T04:04:47;96511.16;;;2.61;94.11
73106;BME280;61559;50.476;15.588;2024-01-06T04:07:19;96513.33;;;2.62;94.15
73106;BME280;61559;50.476;15.588;2024-01-06T04:09:48;96513.48;;;2.63;93.94
73106;BME280;61559;50.476;15.588;2024-01-06T04:12:19;96514.08;;;2.60;94.01
73106;BME280;61559;50.476;15.588;2024-01-06T04:14:51;96513.17;;;2.58;94.09
73106;BME280;61559;50.476;15.588;2024-01-06T04:17:22;96510.35;;;2.57;94.18
73106;BME280;61559;50.476;15.588;2024-01-06T04:19:56;96511.91;;;2.57;94.19
73106;BME280;61559;50.476;15.588;2024-01-06T04:22:27;96516.16;;;2.58;94.42
73106;BME280;61559;50.476;15.588;2024-01-06T04:24:58;96516.09;;;2.59;94.39
73106;BME280;61559;50.476;15.588;2024-01-06T04:27:31;96515.38;;;2.61;94.40
73106;BME280;61559;50.476;15.588;2024-01-06T04:30:05;96517.06;;;2.64;94.46
73106;BME280;61559;50.476;15.588;2024-01-06T04:32:36;96514.55;;;2.66;94.43
73106;BME280;61559;50.476;15.588;2024-01-06T04:35:06;96514.67;;;2.65;94.21
73106;BME280;61559;50.476;15.588;2024-01-06T04:37:38;96510.80;;;2.62;94.38
73106;BME280;61559;50.476;15.588;2024-01-06T04:40:11;96508.38;;;2.61;94.39
73106;BME280;61559;50.476;15.588;2024-01-06T04:42:42;96507.80;;;2.61;94.57
73106;BME280;61559;50.476;15.588;2024-01-06T04:45:13;96502.97;;;2.62;94.59
73106;BME280;61559;50.476;15.588;2024-01-06T04:47:45;96502.91;;;2.62;94.70
73106;BME280;61559;50.476;15.588;2024-01-06T04:50:15;96508.55;;;2.63;94.67
73106;BME280;61559;50.476;15.588;2024-01-06T04:52:46;96509.36;;;2.62;94.68
73106;BME280;61559;50.476;15.588;2024-01-06T04:55:18;96508.20;;;2.62;94.70
73106;BME280;61559;50.476;15.588;2024-01-06T04:57:50;96514.30;;;2.62;94.88
73106;BME280;61559;50.476;15.588;2024-01-06T05:00:21;96515.95;;;2.61;94.79
73106;BME280;61559;50.476;15.588;2024-01-06T05:02:52;96513.58;;;2.60;94.86
73106;BME280;61559;50.476;15.588;2024-01-06T05:05:24;96514.45;;;2.60;94.82
73106;BME280;61559;50.476;15.588;2024-01-06T05:07:53;96514.08;;;2.60;95.04
73106;BME280;61559;50.476;15.588;2024-01-06T05:10:24;96510.29;;;2.60;95.13
73106;BME280;61559;50.476;15.588;2024-01-06T05:12:55;96509.73;;;2.62;95.30
73106;BME280;61559;50.476;15.588;2024-01-06T05:15:27;96507.75;;;2.64;95.23
73106;BME280;61559;50.476;15.588;2024-01-06T05:17:58;96504.67;;;2.67;95.22
73106;BME280;61559;50.476;15.588;2024-01-06T05:20:31;96506.73;;;2.69;95.11
73106;BME280;61559;50.476;15.588;2024-01-06T05:23:01;96506.38;;;2.71;95.23
73106;BME280;61559;50.476;15.588;2024-01-06T05:25:32;96509.41;;;2.72;95.18
73106;BME280;61559;50.476;15.588;2024-01-06T05:28:03;96514.05;;;2.75;95.12
73106;BME280;61559;50.476;15.588;2024-01-06T05:30:35;96513.01;;;2.77;95.02
73106;BME280;61559;50.476;15.588;2024-01-06T05:33:08;96518.23;;;2.78;94.95
73106;BME280;61559;50.476;15.588;2024-01-06T05:35:43;96520.41;;;2.81;94.96
73106;BME280;61559;50.476;15.588;2024-01-06T05:38:14;96526.98;;;2.82;94.95
73106;BME280;61559;50.476;15.588;2024-01-06T05:40:47;96528.27;;;2.85;94.86
73106;BME280;61559;50.476;15.588;2024-01-06T05:43:18;96532.16;;;2.87;94.91
73106;BME280;61559;50.476;15.588;2024-01-06T05:45:47;96536.14;;;2.89;94.77
73106;BME280;61559;50.476;15.588;2024-01-06T05:48:18;96540.16;;;2.89;94.72
73106;BME280;61559;50.476;15.588;2024-01-06T05:50:50;96538.91;;;2.90;94.70
73106;BME280;61559;50.476;15.588;2024-01-06T05:53:21;96540.23;;;2.91;94.60
73106;BME280;61559;50.476;15.588;2024-01-06T05:55:52;96540.43;;;2.90;94.65
73106;BME280;61559;50.476;15.588;2024-01-06T05:58:23;96541.96;;;2.91;94.64
73106;BME280;61559;50.476;15.588;2024-01-06T06:00:54;96545.45;;;2.92;94.69
73106;BME280;61559;50.476;15.588;2024-01-06T06:03:26;96548.27;;;2.93;94.66
73106;BME280;61559;50.476;15.588;2024-01-06T06:05:56;96554.71;;;2.94;94.69
73106;BME280;61559;50.476;15.588;2024-01-06T06:08:27;96553.70;;;2.94;94.70
73106;BME280;61559;50.476;15.588;2024-01-06T06:10:58;96554.26;;;2.95;94.71
73106;BME280;61559;50.476;15.588;2024-01-06T06:13:41;96548.84;;;2.95;94.57
73106;BME280;61559;50.476;15.588;2024-01-06T06:16:13;96550.11;;;2.96;94.58
73106;BME280;61559;50.476;15.588;2024-01-06T06:18:44;96551.98;;;2.97;94.50
73106;BME280;61559;50.476;15.588;2024-01-06T06:21:16;96550.04;;;2.98;94.39
73106;BME280;61559;50.476;15.588;2024-01-06T06:23:47;96553.15;;;2.97;94.33
73106;BME280;61559;50.476;15.588;2024-01-06T06:26:18;96552.60;;;2.96;94.28
73106;BME280;61559;50.476;15.588;2024-01-06T06:28:49;96555.66;;;2.96;94.29
73106;BME280;61559;50.476;15.588;2024-01-06T06:31:21;96559.11;;;2.96;94.29
73106;BME280;61559;50.476;15.588;2024-01-06T06:33:51;96564.97;;;2.95;94.25
73106;BME280;61559;50.476;15.588;2024-01-06T06:36:21;96568.40;;;2.91;94.19
73106;BME280;61559;50.476;15.588;2024-01-06T06:38:52;96573.73;;;2.88;94.15
73106;BME280;61559;50.476;15.588;2024-01-06T06:41:24;96575.69;;;2.87;94.12
73106;BME280;61559;50.476;15.588;2024-01-06T06:43:55;96577.61;;;2.85;93.92
73106;BME280;61559;50.476;15.588;2024-01-06T06:46:25;96578.45;;;2.83;93.97
73106;BME280;61559;50.476;15.588;2024-01-06T06:48:56;96586.56;;;2.81;94.07
73106;BME280;61559;50.476;15.588;2024-01-06T06:51:28;96587.80;;;2.80;94.07
73106;BME280;61559;50.476;15.588;2024-01-06T06:54:00;96588.63;;;2.79;94.04
73106;BME280;61559;50.476;15.588;2024-01-06T06:56:29;96594.11;;;2.80;94.10
73106;BME280;61559;50.476;15.588;2024-01-06T06:59:00;96597.05;;;2.77;94.02
73106;BME280;61559;50.476;15.588;2024-01-06T07:01:30;96602.42;;;2.75;94.17
73106;BME280;61559;50.476;15.588;2024-01-06T07:04:03;96602.41;;;2.75;94.39
73106;BME280;61559;50.476;15.588;2024-01-06T07:06:35;96605.39;;;2.76;94.58
73106;BME280;61559;50.476;15.588;2024-01-06T07:09:06;96604.05;;;2.78;94.50
73106;BME280;61559;50.476;15.588;2024-01-06T07:11:37;96600.05;;;2.80;94.53
73106;BME280;61559;50.476;15.588;2024-01-06T07:14:08;96602.27;;;2.81;94.55
73106;BME280;61559;50.476;15.588;2024-01-06T07:16:39;96608.80;;;2.84;94.52
73106;BME280;61559;50.476;15.588;2024-01-06T07:19:09;96608.14;;;2.86;94.60
73106;BME280;61559;50.476;15.588;2024-01-06T07:21:40;96611.85;;;2.86;94.50
73106;BME280;61559;50.476;15.588;2024-01-06T07:24:12;96611.45;;;2.87;94.43
73106;BME280;61559;50.476;15.588;2024-01-06T07:26:43;96617.33;;;2.88;94.45
73106;BME280;61559;50.476;15.588;2024-01-06T07:29:13;96616.78;;;2.90;94.55
73106;BME280;61559;50.476;15.588;2024-01-06T07:31:44;96617.13;;;2.91;94.52
73106;BME280;61559;50.476;15.588;2024-01-06T07:34:15;96619.95;;;2.92;94.61
73106;BME280;61559;50.476;15.588;2024-01-06T07:36:47;96626.27;;;2.95;94.61
73106;BME280;61559;50.476;15.588;2024-01-06T07:39:18;96629.02;;;2.98;94.63
73106;BME280;61559;50.476;15.588;2024-01-06T07:41:48;96634.48;;;3.00;94.72
73106;BME280;61559;50.476;15.588;2024-01-06T07:44:19;96634.23;;;3.01;94.72
73106;BME280;61559;50.476;15.588;2024-01-06T07:46:54;96637.67;;;3.04;94.72
73106;BME280;61559;50.476;15.588;2024-01-06T07:49:25;96643.68;;;3.07;94.94
73106;BME280;61559;50.476;15.588;2024-01-06T07:51:57;96645.22;;;3.10;94.94
73106;BME280;61559;50.476;15.588;2024-01-06T07:54:29;96647.34;;;3.14;94.95
73106;BME280;61559;50.476;15.588;2024-01-06T07:57:00;96651.59;;;3.16;94.84
73106;BME280;61559;50.476;15.588;2024-01-06T07:59:32;96654.48;;;3.16;94.67
73106;BME280;61559;50.476;15.588;2024-01-06T08:02:03;96660.61;;;3.19;94.85
73106;BME280;61559;50.476;15.588;2024-01-06T08:04:34;96661.21;;;3.22;94.93
73106;BME280;61559;50.476;15.588;2024-01-06T08:07:06;96663.09;;;3.25;94.94
73106;BME280;61559;50.476;15.588;2024-01-06T08:09:35;96665.45;;;3.27;94.99
73106;BME280;61559;50.476;15.588;2024-01-06T08:12:10;96669.98;;;3.27;95.03
73106;BME280;61559;50.476;15.588;2024-01-06T08:14:42;96669.11;;;3.31;95.00
73106;BME280;61559;50.476;15.588;2024-01-06T08:17:11;96674.02;;;3.33;94.90
73106;BME280;61559;50.476;15.588;2024-01-06T08:19:47;96673.23;;;3.34;95.08
73106;BME280;61559;50.476;15.588;2024-01-06T08:22:18;96674.00;;;3.37;95.14
73106;BME280;61559;50.476;15.588;2024-01-06T08:24:48;96675.73;;;3.40;95.16
73106;BME280;61559;50.476;15.588;2024-01-06T08:27:19;96681.82;;;3.42;95.35
73106;BME280;61559;50.476;15.588;2024-01-06T08:29:51;96682.84;;;3.46;95.39
73106;BME280;61559;50.476;15.588;2024-01-06T08:32:23;96681.02;;;3.52;95.37
73106;BME280;61559;50.476;15.588;2024-01-06T08:34:52;96678.50;;;3.56;95.37
73106;BME280;61559;50.476;15.588;2024-01-06T08:37:23;96680.60;;;3.58;95.40
73106;BME280;61559;50.476;15.588;2024-01-06T08:39:55;96685.47;;;3.62;95.38
73106;BME280;61559;50.476;15.588;2024-01-06T08:42:26;96686.38;;;3.66;95.32
73106;BME280;61559;50.476;15.588;2024-01-06T08:44:57;96688.61;;;3.69;95.32
73106;BME280;61559;50.476;15.588;2024-01-06T08:47:30;96688.33;;;3.71;95.40
73106;BME280;61559;50.476;15.588;2024-01-06T08:50:01;96688.70;;;3.74;95.49
73106;BME280;61559;50.476;15.588;2024-01-06T08:52:32;96688.30;;;3.78;95.70
73106;BME280;61559;50.476;15.588;2024-01-06T08:55:04;96690.17;;;3.82;95.79
73106;BME280;61559;50.476;15.588;2024-01-06T08:57:36;96689.70;;;3.85;95.85
73106;BME280;61559;50.476;15.588;2024-01-06T09:00:09;96689.98;;;3.89;95.87
73106;BME280;61559;50.476;15.588;2024-01-06T09:02:41;96689.14;;;3.94;95.96
73106;BME280;61559;50.476;15.588;2024-01-06T09:05:13;96688.98;;;3.99;96.02
73106;BME280;61559;50.476;15.588;2024-01-06T09:07:44;96689.50;;;4.05;96.00
73106;BME280;61559;50.476;15.588;2024-01-06T09:10:23;96693.22;;;4.10;96.08
73106;BME280;61559;50.476;15.588;2024-01-06T09:12:53;96697.39;;;4.16;96.12
73106;BME280;61559;50.476;15.588;2024-01-06T09:15:25;96693.55;;;4.21;96.17
73106;BME280;61559;50.476;15.588;2024-01-06T09:17:56;96692.29;;;4.24;96.20
73106;BME280;61559;50.476;15.588;2024-01-06T09:20:25;96694.21;;;4.28;96.04
73106;BME280;61559;50.476;15.588;2024-01-06T09:22:55;96695.86;;;4.30;95.79
73106;BME280;61559;50.476;15.588;2024-01-06T09:25:25;96698.74;;;4.31;95.70
73106;BME280;61559;50.476;15.588;2024-01-06T09:27:57;96697.89;;;4.33;95.70
73106;BME280;61559;50.476;15.588;2024-01-06T09:30:30;96700.37;;;4.38;95.70
73106;BME280;61559;50.476;15.588;2024-01-06T09:33:02;96697.48;;;4.42;95.60
73106;BME280;61559;50.476;15.588;2024-01-06T09:35:33;96701.27;;;4.49;95.67
73106;BME280;61559;50.476;15.588;2024-01-06T09:38:03;96699.76;;;4.55;95.66
73106;BME280;61559;50.476;15.588;2024-01-06T09:40:32;96699.56;;;4.60;95.67
73106;BME280;61559;50.476;15.588;2024-01-06T09:43:05;96700.35;;;4.64;95.60
73106;BME280;61559;50.476;15.588;2024-01-06T09:45:36;96703.72;;;4.69;95.54
73106;BME280;61559;50.476;15.588;2024-01-06T09:48:11;96707.84;;;4.72;95.36
73106;BME280;61559;50.476;15.588;2024-01-06T09:50:45;96710.24;;;4.76;95.32
73106;BME280;61559;50.476;15.588;2024-01-06T09:53:16;96707.30;;;4.80;95.19
73106;BME280;61559;50.476;15.588;2024-01-06T09:55:49;96704.63;;;4.84;95.21
73106;BME280;61559;50.476;15.588;2024-01-06T09:58:22;96706.60;;;4.87;95.14
73106;BME280;61559;50.476;15.588;2024-01-06T10:00:53;96708.11;;;4.90;95.14
73106;BME280;61559;50.476;15.588;2024-01-06T10:03:24;96710.09;;;4.93;95.13
73106;BME280;61559;50.476;15.588;2024-01-06T10:05:57;96710.67;;;4.97;95.10
73106;BME280;61559;50.476;15.588;2024-01-06T10:08:33;96708.58;;;5.00;94.99
73106;BME280;61559;50.476;15.588;2024-01-06T10:11:05;96710.13;;;5.03;94.91
73106;BME280;61559;50.476;15.588;2024-01-06T10:13:36;96705.72;;;5.09;94.95
73106;BME280;61559;50.476;15.588;2024-01-06T10:16:08;96699.77;;;5.15;95.18
73106;BME280;61559;50.476;15.588;2024-01-06T10:18:40;96695.85;;;5.20;95.04
73106;BME280;61559;50.476;15.588;2024-01-06T10:21:12;96696.92;;;5.26;95.05
73106;BME280;61559;50.476;15.588;2024-01-06T10:23:43;96699.17;;;5.30;95.03
73106;BME280;61559;50.476;15.588;2024-01-06T10:26:15;96702.02;;;5.33;94.70
73106;BME280;61559;50.476;15.588;2024-01-06T10:28:49;96703.33;;;5.36;94.63
73106;BME280;61559;50.476;15.588;2024-01-06T10:31:21;96701.30;;;5.39;94.60
73106;BME280;61559;50.476;15.588;2024-01-06T10:33:52;96698.33;;;5.44;94.55
73106;BME280;61559;50.476;15.588;2024-01-06T10:36:25;96693.70;;;5.48;94.47
73106;BME280;61559;50.476;15.588;2024-01-06T10:38:58;96693.39;;;5.52;94.58
73106;BME280;61559;50.476;15.588;2024-01-06T10:41:32;96691.30;;;5.54;94.42
73106;BME280;61559;50.476;15.588;2024-01-06T10:44:05;96689.73;;;5.55;94.26
73106;BME280;61559;50.476;15.588;2024-01-06T10:46:37;96687.45;;;5.57;94.23
73106;BME280;61559;50.476;15.588;2024-01-06T10:49:10;96683.05;;;5.59;94.16
73106;BME280;61559;50.476;15.588;2024-01-06T10:51:42;96680.73;;;5.60;93.87
73106;BME280;61559;50.476;15.588;2024-01-06T10:54:16;96683.90;;;5.65;94.10
73106;BME280;61559;50.476;15.588;2024-01-06T10:56:50;96685.20;;;5.68;94.12
73106;BME280;61559;50.476;15.588;2024-01-06T10:59:23;96679.66;;;5.71;94.11
73106;BME280;61559;50.476;15.588;2024-01-06T11:01:55;96679.23;;;5.74;94.08
73106;BME280;61559;50.476;15.588;2024-01-06T11:04:27;96675.90;;;5.78;94.10
73106;BME280;61559;50.476;15.588;2024-01-06T11:07:00;96679.99;;;5.81;93.91
73106;BME280;61559;50.476;15.588;2024-01-06T11:09:35;96681.01;;;5.84;93.95
73106;BME280;61559;50.476;15.588;2024-01-06T11:12:09;96679.23;;;5.87;93.88
73106;BME280;61559;50.476;15.588;2024-01-06T11:14:40;96681.40;;;5.86;93.49
73106;BME280;61559;50.476;15.588;2024-01-06T11:17:12;96684.50;;;5.87;93.38
73106;BME280;61559;50.476;15.588;2024-01-06T11:19:44;96681.05;;;5.86;93.08
73106;BME280;61559;50.476;15.588;2024-01-06T11:22:23;96678.42;;;5.85;93.05
73106;BME280;61559;50.476;15.588;2024-01-06T11:24:55;96680.77;;;5.85;93.07
73106;BME280;61559;50.476;15.588;2024-01-06T11:27:28;96678.60;;;5.84;92.49
73106;BME280;61559;50.476;15.588;2024-01-06T11:30:01;96680.79;;;5.82;92.27
73106;BME280;61559;50.476;15.588;2024-01-06T11:32:37;96680.64;;;5.82;92.35
73106;BME280;61559;50.476;15.588;2024-01-06T11:35:11;96678.86;;;5.82;92.09
73106;BME280;61559;50.476;15.588;2024-01-06T11:37:56;96680.90;;;5.80;91.79
73106;BME280;61559;50.476;15.588;2024-01-06T11:40:34;96679.18;;;5.79;91.64
73106;BME280;61559;50.476;15.588;2024-01-06T11:43:07;96681.52;;;5.78;91.31
73106;BME280;61559;50.476;15.588;2024-01-06T11:45:41;96677.00;;;5.75;91.26
73106;BME280;61559;50.476;15.588;2024-01-06T11:48:13;96678.54;;;5.76;91.85
73106;BME280;61559;50.476;15.588;2024-01-06T11:50:44;96674.58;;;5.77;92.07
73106;BME280;61559;50.476;15.588;2024-01-06T11:53:13;96671.98;;;5.77;91.87
73106;BME280;61559;50.476;15.588;2024-01-06T11:55:45;96668.81;;;5.73;91.58
73106;BME280;61559;50.476;15.588;2024-01-06T11:58:19;96667.73;;;5.73;91.35
73106;BME280;61559;50.476;15.588;2024-01-06T12:00:57;96668.16;;;5.75;91.48
73106;BME280;61559;50.476;15.588;2024-01-06T12:03:29;96665.67;;;5.76;91.25
73106;BME280;61559;50.476;15.588;2024-01-06T12:06:06;96668.39;;;5.78;91.42
73106;BME280;61559;50.476;15.588;2024-01-06T12:08:37;96669.27;;;5.79;91.49
73106;BME280;61559;50.476;15.588;2024-01-06T12:11:13;96669.36;;;5.82;91.91
73106;BME280;61559;50.476;15.588;2024-01-06T12:13:48;96672.80;;;5.85;91.83
73106;BME280;61559;50.476;15.588;2024-01-06T12:16:19;96673.83;;;5.86;91.89
73106;BME280;61559;50.476;15.588;2024-01-06T12:18:50;96672.86;;;5.86;91.17
73106;BME280;61559;50.476;15.588;2024-01-06T12:21:22;96674.92;;;5.88;91.50
73106;BME280;61559;50.476;15.588;2024-01-06T12:23:53;96673.59;;;5.89;91.15
73106;BME280;61559;50.476;15.588;2024-01-06T12:26:24;96672.41;;;5.86;90.59
73106;BME280;61559;50.476;15.588;2024-01-06T12:28:56;96674.48;;;5.83;90.70
73106;BME280;61559;50.476;15.588;2024-01-06T12:31:27;96675.11;;;5.84;91.05
73106;BME280;61559;50.476;15.588;2024-01-06T12:34:00;96675.13;;;5.86;91.36
73106;BME280;61559;50.476;15.588;2024-01-06T12:36:32;96674.70;;;5.89;91.33
73106;BME280;61559;50.476;15.588;2024-01-06T12:39:04;96676.42;;;5.90;91.21
73106;BME280;61559;50.476;15.588;2024-01-06T12:41:37;96676.07;;;5.92;91.21
73106;BME280;61559;50.476;15.588;2024-01-06T12:44:09;96675.26;;;5.92;91.15
73106;BME280;61559;50.476;15.588;2024-01-06T12:46:40;96674.36;;;5.93;91.54
73106;BME280;61559;50.476;15.588;2024-01-06T12:49:12;96673.10;;;5.93;91.27
73106;BME280;61559;50.476;15.588;2024-01-06T12:51:43;96669.38;;;5.92;91.17
73106;BME280;61559;50.476;15.588;2024-01-06T12:54:14;96668.31;;;5.92;91.17
73106;BME280;61559;50.476;15.588;2024-01-06T12:56:46;96672.89;;;5.93;91.23
73106;BME280;61559;50.476;15.588;2024-01-06T12:59:17;96674.94;;;5.93;91.28
73106;BME280;61559;50.476;15.588;2024-01-06T13:01:48;96674.69;;;5.92;91.42
73106;BME280;61559;50.476;15.588;2024-01-06T13:04:20;96675.50;;;5.90;91.31
73106;BME280;61559;50.476;15.588;2024-01-06T13:06:51;96672.56;;;5.89;91.17
73106;BME280;61559;50.476;15.588;2024-01-06T13:09:22;96677.30;;;5.86;90.82
73106;BME280;61559;50.476;15.588;2024-01-06T13:11:54;96679.67;;;5.84;90.60
73106;BME280;61559;50.476;15.588;2024-01-06T13:14:30;96682.59;;;5.82;90.97
73106;BME280;61559;50.476;15.588;2024-01-06T13:17:01;96684.85;;;5.83;91.06
73106;BME280;61559;50.476;15.588;2024-01-06T13:19:33;96682.52;;;5.82;90.81
73106;BME280;61559;50.476;15.588;2024-01-06T13:22:04;96683.60;;;5.80;90.39
73106;BME280;61559;50.476;15.588;2024-01-06T13:24:36;96686.42;;;5.80;90.52